Time;durP1;ratioP1;P1;durP2;ratioP2;P2;SDS_P1;SDS_P2;PMS_P1;PMS_P2;Temp;Humidity;BMP_temperature;BMP_pressure;BME280_temperature;BME280_humidity;BME280_pressure;Samples;Min_cycle;Max_cycle;Signal;HPM_P1;HPM_P2
2021/11/14 00:01:45;;;;;;;91.25;44.08;;;;;;;0.33;77.54;100408.81;2119513;83;21475;-80
2021/11/14 00:04:49;;;;;;;87.35;43.85;;;;;;;0.27;77.30;100418.33;2120076;83;21096;-79
2021/11/14 00:07:51;;;;;;;95.62;45.95;;;;;;;0.24;77.19;100415.08;2088725;83;21066;-80
2021/11/14 00:11:00;;;;;;;105.40;50.45;;;;;;;0.21;77.25;100416.10;2121825;83;21116;-80
2021/11/14 00:14:02;;;;;;;109.92;52.80;;;;;;;0.18;77.21;100412.38;2116802;83;20990;-80
2021/11/14 00:17:04;;;;;;;125.90;55.78;;;;;;;-0.02;77.38;100415.72;2125158;83;21059;-79
2021/11/14 00:20:09;;;;;;;260.48;75.52;;;;;;;-0.06;77.56;100412.06;2116853;83;21472;-79
2021/11/14 00:23:11;;;;;;;96.85;50.40;;;;;;;-0.04;77.67;100408.91;2115467;83;21069;-79
2021/11/14 00:26:13;;;;;;;101.38;48.40;;;;;;;-0.02;77.57;100403.14;2118130;83;21483;-80
2021/11/14 00:29:15;;;;;;;114.05;54.67;;;;;;;-0.09;77.78;100401.82;2117041;83;21515;-80
2021/11/14 00:32:17;;;;;;;95.12;49.93;;;;;;;-0.08;77.61;100397.83;2117305;83;21595;-79
2021/11/14 00:35:22;;;;;;;107.15;52.50;;;;;;;-0.21;77.59;100412.52;2119726;83;21077;-79
2021/11/14 00:38:24;;;;;;;107.47;52.73;;;;;;;-0.21;77.63;100415.60;2121510;83;21029;-80
2021/11/14 00:41:26;;;;;;;110.85;51.55;;;;;;;-0.21;77.76;100411.22;2121966;83;20967;-80
2021/11/14 00:44:28;;;;;;;103.17;47.88;;;;;;;-0.20;77.78;100412.05;2121639;83;21037;-79
2021/11/14 00:47:29;;;;;;;119.80;52.27;;;;;;;-0.18;77.53;100414.95;2123226;83;21018;-79
2021/11/14 00:50:33;;;;;;;116.03;52.03;;;;;;;-0.27;77.50;100411.12;2119964;82;21109;-80
2021/11/14 00:53:35;;;;;;;110.75;50.73;;;;;;;-0.26;77.46;100421.08;2103345;83;21078;-80
2021/11/14 00:56:37;;;;;;;116.15;49.53;;;;;;;-0.27;77.65;100418.11;2094905;83;21010;-80
2021/11/14 00:59:38;;;;;;;123.55;58.25;;;;;;;-0.25;77.56;100422.30;2099935;83;21098;-79
2021/11/14 01:02:41;;;;;;;124.10;56.28;;;;;;;-0.28;77.67;100427.70;2099384;83;21560;-79
2021/11/14 01:05:42;;;;;;;104.80;48.87;;;;;;;-0.28;77.68;100430.78;2103340;83;21064;-79
2021/11/14 01:08:47;;;;;;;99.30;45.90;;;;;;;-0.29;77.35;100435.61;2094269;82;21050;-79
2021/11/14 01:11:48;;;;;;;96.08;46.33;;;;;;;-0.29;77.32;100431.69;2100474;83;21101;-79
2021/11/14 01:14:50;;;;;;;93.00;44.53;;;;;;;-0.32;77.24;100430.56;2098099;83;21069;-80
2021/11/14 01:17:52;;;;;;;99.92;48.00;;;;;;;-0.37;77.13;100436.52;2095261;83;21037;-80
2021/11/14 01:20:57;;;;;;;92.47;46.18;;;;;;;-0.38;77.09;100435.67;2101979;83;21538;-80
2021/11/14 01:24:00;;;;;;;100.95;47.75;;;;;;;-0.34;77.29;100432.42;2098167;83;21096;-80
2021/11/14 01:27:01;;;;;;;93.50;43.85;;;;;;;-0.42;77.17;100434.63;2095671;82;21113;-79
2021/11/14 01:30:07;;;;;;;134.60;52.33;;;;;;;-0.62;77.33;100428.83;2097525;83;20976;-79
2021/11/14 01:33:10;;;;;;;142.05;57.08;;;;;;;-0.62;77.53;100433.17;2073148;83;20946;-79
2021/11/14 01:36:13;;;;;;;121.05;51.70;;;;;;;-0.62;77.68;100426.22;2097850;83;21077;-79
2021/11/14 01:39:14;;;;;;;113.28;50.78;;;;;;;-0.61;77.67;100427.88;2107285;83;21064;-79
2021/11/14 01:42:16;;;;;;;107.83;47.75;;;;;;;-0.60;77.63;100432.16;2102371;83;21031;-80
2021/11/14 01:45:18;;;;;;;111.37;49.67;;;;;;;-0.65;77.10;100434.18;2095484;83;21035;-79
2021/11/14 01:48:20;;;;;;;112.70;50.33;;;;;;;-0.69;77.16;100440.04;2100256;83;21022;-79
2021/11/14 01:51:25;;;;;;;133.93;58.45;;;;;;;-0.71;77.31;100444.96;2099864;83;21019;-79
2021/11/14 01:54:29;;;;;;;126.00;53.17;;;;;;;-0.79;77.12;100451.06;2104375;83;21026;-79
2021/11/14 01:57:30;;;;;;;110.52;47.95;;;;;;;-0.81;77.28;100459.45;2099140;83;21056;-78
2021/11/14 02:00:43;;;;;;;106.65;47.80;;;;;;;-0.85;76.96;100456.63;2102851;82;21571;-79
2021/11/14 02:03:50;;;;;;;103.32;49.33;;;;;;;-0.95;76.74;100462.35;2098797;83;21498;-79
2021/11/14 02:06:51;;;;;;;122.50;58.02;;;;;;;-0.95;76.74;100458.45;2098922;83;21054;-80
2021/11/14 02:09:53;;;;;;;114.37;48.78;;;;;;;-0.94;76.87;100456.20;2093382;83;21062;-80
2021/11/14 02:12:56;;;;;;;134.95;57.55;;;;;;;-0.92;76.94;100459.58;2073477;83;21896;-79
2021/11/14 02:15:59;;;;;;;148.32;62.20;;;;;;;-0.93;76.88;100464.86;2096337;83;20974;-79
2021/11/14 02:19:01;;;;;;;150.82;62.98;;;;;;;-0.98;77.07;100461.69;2097009;82;21066;-79
2021/11/14 02:22:04;;;;;;;150.87;61.08;;;;;;;-1.08;77.12;100471.76;2102276;83;21050;-79
2021/11/14 02:25:10;;;;;;;125.33;51.92;;;;;;;-1.18;76.96;100469.30;2099798;82;21046;-79
2021/11/14 02:28:13;;;;;;;131.72;55.83;;;;;;;-1.23;77.08;100477.81;2099242;83;21038;-79
2021/11/14 02:31:14;;;;;;;106.27;46.08;;;;;;;-1.23;77.47;100488.23;2092271;83;21051;-79
2021/11/14 02:34:16;;;;;;;137.22;55.78;;;;;;;-1.27;77.45;100483.63;2102370;83;21050;-79
2021/11/14 02:37:18;;;;;;;106.63;49.15;;;;;;;-1.28;77.57;100488.93;2103090;83;21055;-80
2021/11/14 02:40:21;;;;;;;109.22;48.15;;;;;;;-1.24;77.66;100490.43;2096638;82;20967;-79
2021/11/14 02:43:23;;;;;;;99.05;48.45;;;;;;;-1.20;77.63;100497.17;2102424;82;21054;-80
2021/11/14 02:46:25;;;;;;;121.33;52.78;;;;;;;-1.19;77.63;100497.54;2097030;83;20979;-79
2021/11/14 02:49:27;;;;;;;126.35;53.83;;;;;;;-1.19;77.59;100496.23;2096960;83;21103;-79
2021/11/14 02:52:29;;;;;;;128.53;57.75;;;;;;;-1.41;77.43;100496.53;2092195;83;21063;-80
2021/11/14 02:55:31;;;;;;;162.05;61.37;;;;;;;-1.46;77.90;100499.41;2071531;84;21068;-79
2021/11/14 02:58:33;;;;;;;131.03;57.53;;;;;;;-1.47;77.98;100502.91;2075403;84;21005;-79
2021/11/14 03:01:44;;;;;;;135.07;59.15;;;;;;;-1.49;78.04;100506.07;2076552;84;21075;-79
2021/11/14 03:04:46;;;;;;;143.45;58.15;;;;;;;-1.42;78.40;100502.20;2072018;83;21091;-79
2021/11/14 03:07:49;;;;;;;146.15;62.55;;;;;;;-1.37;78.17;100500.21;2071584;84;21024;-79
2021/11/14 03:10:51;;;;;;;137.40;58.23;;;;;;;-1.36;78.37;100504.48;2076153;84;20958;-79
2021/11/14 03:13:53;;;;;;;129.42;55.10;;;;;;;-1.29;78.40;100506.78;2078152;84;21506;-80
2021/11/14 03:16:55;;;;;;;132.70;54.63;;;;;;;-1.28;78.27;100506.69;2077693;84;21049;-79
2021/11/14 03:19:56;;;;;;;115.20;53.23;;;;;;;-1.26;78.26;100513.12;2076086;84;21027;-79
2021/11/14 03:22:58;;;;;;;120.53;53.13;;;;;;;-1.28;78.25;100521.48;2073423;84;20953;-79
2021/11/14 03:26:01;;;;;;;129.72;55.67;;;;;;;-1.24;78.35;100520.38;2079558;84;21029;-79
2021/11/14 03:29:04;;;;;;;120.72;54.08;;;;;;;-1.24;78.22;100513.86;2078716;84;21476;-79
2021/11/14 03:32:06;;;;;;;118.22;52.65;;;;;;;-1.22;78.22;100514.63;2084131;84;21088;-79
2021/11/14 03:35:09;;;;;;;126.35;54.05;;;;;;;-1.26;77.85;100517.03;2057336;84;21032;-79
2021/11/14 03:38:13;;;;;;;118.57;48.48;;;;;;;-1.31;77.87;100514.66;2074243;84;20974;-79
2021/11/14 03:41:22;;;;;;;111.17;47.67;;;;;;;-1.37;77.70;100517.59;2072660;84;21050;-79
2021/11/14 03:44:24;;;;;;;131.32;56.40;;;;;;;-1.65;77.55;100517.73;2073205;84;21577;-79
2021/11/14 03:47:25;;;;;;;130.15;55.80;;;;;;;-1.76;78.08;100523.11;2073244;84;21447;-79
2021/11/14 03:50:28;;;;;;;119.95;54.18;;;;;;;-1.70;78.30;100523.62;2079905;84;20998;-79
2021/11/14 03:53:30;;;;;;;131.67;56.33;;;;;;;-1.67;78.18;100524.77;2086505;83;21064;-79
2021/11/14 03:56:33;;;;;;;125.05;53.30;;;;;;;-1.60;78.22;100519.64;2095480;83;21636;-80
2021/11/14 03:59:36;;;;;;;118.13;54.00;;;;;;;-1.57;78.04;100516.03;2099082;83;21089;-79
2021/11/14 04:02:38;;;;;;;109.80;53.28;;;;;;;-1.57;77.96;100526.45;2100836;82;21019;-79
2021/11/14 04:05:43;;;;;;;142.43;58.68;;;;;;;-1.58;78.07;100528.65;2101521;83;21041;-80
2021/11/14 04:08:44;;;;;;;142.57;60.50;;;;;;;-1.69;77.83;100524.45;2097380;83;21035;-79
2021/11/14 04:11:46;;;;;;;128.85;55.90;;;;;;;-1.79;77.99;100526.70;2096537;83;21082;-79
2021/11/14 04:14:47;;;;;;;109.12;52.60;;;;;;;-1.80;78.11;100538.03;2096549;83;20994;-80
2021/11/14 04:17:55;;;;;;;113.75;50.10;;;;;;;-1.87;78.06;100534.88;2102134;82;21067;-80
2021/11/14 04:20:53;;;;;;;106.40;51.13;;;;;;;-1.89;78.27;100532.81;2099373;83;21023;-77
2021/11/14 04:23:54;;;;;;;121.45;54.23;;;;;;;-1.94;78.26;100530.92;2104446;83;21055;-79
2021/11/14 04:26:56;;;;;;;115.72;50.30;;;;;;;-1.82;78.46;100539.41;2097683;83;21048;-79
2021/11/14 04:29:57;;;;;;;111.15;49.03;;;;;;;-1.73;78.26;100542.46;2095681;83;21022;-79
2021/11/14 04:32:59;;;;;;;98.00;47.90;;;;;;;-1.70;78.29;100546.20;2092461;83;20975;-79
2021/11/14 04:36:01;;;;;;;111.50;51.75;;;;;;;-1.67;78.34;100556.45;2102253;83;21104;-79
2021/11/14 04:39:05;;;;;;;140.32;55.10;;;;;;;-1.67;78.28;100551.25;2103885;83;21004;-78
2021/11/14 04:42:08;;;;;;;122.17;53.02;;;;;;;-1.66;78.33;100551.19;2070620;83;21520;-79
2021/11/14 04:45:10;;;;;;;121.10;52.43;;;;;;;-1.70;78.27;100558.75;2096179;83;21577;-80
2021/11/14 04:48:12;;;;;;;135.22;54.27;;;;;;;-1.74;78.17;100557.70;2092808;83;21050;-79
2021/11/14 04:51:14;;;;;;;147.93;59.38;;;;;;;-1.78;78.22;100561.36;2100853;83;21013;-79
2021/11/14 04:54:17;;;;;;;147.40;58.35;;;;;;;-1.74;78.34;100567.64;2113067;83;21655;-79
2021/11/14 04:57:19;;;;;;;144.47;57.88;;;;;;;-1.71;78.27;100567.95;2122018;83;21037;-79
2021/11/14 05:00:25;;;;;;;166.32;59.58;;;;;;;-1.71;78.34;100569.25;2117869;81;20982;-79
2021/11/14 05:03:27;;;;;;;153.30;56.77;;;;;;;-1.70;78.18;100575.66;2124225;83;21495;-79
2021/11/14 05:06:28;;;;;;;156.15;59.48;;;;;;;-1.77;77.92;100565.63;2119314;83;20963;-79
2021/11/14 05:09:30;;;;;;;177.02;59.13;;;;;;;-1.81;78.11;100564.48;2118228;82;21079;-79
2021/11/14 05:12:32;;;;;;;167.03;60.67;;;;;;;-1.75;78.31;100567.70;2119618;81;21574;-79
2021/11/14 05:15:34;;;;;;;164.75;60.83;;;;;;;-1.73;78.31;100573.22;2115955;83;20961;-79
2021/11/14 05:18:35;;;;;;;179.55;58.65;;;;;;;-1.71;78.38;100572.69;2127021;83;21061;-79
2021/11/14 05:21:38;;;;;;;165.68;60.05;;;;;;;-1.73;78.42;100573.68;2122154;83;21030;-79
2021/11/14 05:24:40;;;;;;;137.52;54.03;;;;;;;-1.72;78.37;100574.05;2120229;83;20986;-79
2021/11/14 05:27:42;;;;;;;172.43;55.45;;;;;;;-1.89;77.81;100574.89;2116081;83;21001;-79
2021/11/14 05:30:44;;;;;;;168.90;59.38;;;;;;;-2.15;77.79;100582.69;2118334;83;21129;-79
2021/11/14 05:33:45;;;;;;;161.22;60.08;;;;;;;-2.20;78.33;100598.95;2113891;83;21029;-79
2021/11/14 05:36:47;;;;;;;135.97;53.80;;;;;;;-2.11;78.62;100607.61;2121676;83;21022;-79
2021/11/14 05:39:48;;;;;;;135.22;44.90;;;;;;;-2.08;78.31;100602.29;2120611;83;21442;-79
2021/11/14 05:42:49;;;;;;;145.20;50.88;;;;;;;-2.15;78.32;100613.42;2090300;83;21058;-79
2021/11/14 05:45:51;;;;;;;116.05;49.00;;;;;;;-2.17;78.56;100607.91;2078712;84;21041;-77
2021/11/14 05:48:52;;;;;;;116.45;49.13;;;;;;;-2.16;78.70;100618.25;2117449;83;21013;-78
2021/11/14 05:51:54;;;;;;;106.58;41.80;;;;;;;-2.15;78.63;100619.08;2122336;83;20987;-77
2021/11/14 05:54:55;;;;;;;93.62;41.18;;;;;;;-2.14;78.67;100624.66;2090577;83;21525;-78
2021/11/14 05:58:10;;;;;;;94.52;38.23;;;;;;;-2.23;78.52;100630.30;2087001;84;21008;-76
2021/11/14 06:01:18;;;;;;;101.10;42.85;;;;;;;-2.32;78.65;100631.58;2086625;84;21057;-79
2021/11/14 06:04:29;;;;;;;107.78;46.80;;;;;;;-2.38;78.98;100635.31;2078866;84;21530;-78
2021/11/14 06:07:30;;;;;;;111.17;50.50;;;;;;;-2.29;79.16;100641.38;2081478;84;21050;-79
2021/11/14 06:10:32;;;;;;;117.97;47.85;;;;;;;-2.23;79.18;100649.34;2085047;84;21044;-79
2021/11/14 06:13:33;;;;;;;119.87;47.55;;;;;;;-2.20;79.16;100646.59;2081020;84;21703;-79
2021/11/14 06:16:35;;;;;;;130.90;48.92;;;;;;;-2.17;79.15;100652.95;2081570;83;21034;-78
2021/11/14 06:19:36;;;;;;;125.60;48.70;;;;;;;-2.12;79.12;100659.23;2087254;83;21085;-78
2021/11/14 06:22:38;;;;;;;111.30;45.88;;;;;;;-2.13;78.92;100659.70;2080080;84;21023;-79
2021/11/14 06:25:40;;;;;;;120.77;47.83;;;;;;;-2.12;78.83;100665.73;2084218;84;20975;-78
2021/11/14 06:28:42;;;;;;;109.85;46.98;;;;;;;-2.13;78.64;100673.16;2084678;84;21078;-79
2021/11/14 06:31:44;;;;;;;103.78;46.53;;;;;;;-2.10;78.85;100673.02;2085845;84;21087;-76
2021/11/14 06:34:45;;;;;;;108.57;48.05;;;;;;;-2.05;78.99;100687.95;2081402;84;20939;-82
2021/11/14 06:37:47;;;;;;;104.07;47.55;;;;;;;-2.01;78.87;100693.38;2083455;84;21532;-80
2021/11/14 06:40:49;;;;;;;120.10;50.35;;;;;;;-2.00;78.81;100710.66;2083200;83;20975;-78
2021/11/14 06:43:52;;;;;;;110.03;49.67;;;;;;;-1.98;78.91;100698.44;2059229;84;20991;-76
2021/11/14 06:46:55;;;;;;;132.97;59.27;;;;;;;-1.89;78.97;100710.16;2081768;84;21086;-85
2021/11/14 06:49:57;;;;;;;124.18;55.73;;;;;;;-1.86;78.99;100706.98;2081052;84;20975;-79
2021/11/14 06:52:59;;;;;;;120.50;53.42;;;;;;;-1.85;79.08;100703.45;2081017;84;21301;-77
2021/11/14 06:56:01;;;;;;;121.60;52.25;;;;;;;-1.76;79.18;100707.83;2078289;84;21017;-78
2021/11/14 06:59:02;;;;;;;131.43;54.25;;;;;;;-1.69;79.29;100710.50;2075811;84;21042;-77
2021/11/14 07:02:06;;;;;;;132.32;53.52;;;;;;;-1.61;79.56;100718.32;2077036;84;21024;-78
2021/11/14 07:05:09;;;;;;;124.33;50.28;;;;;;;-1.55;79.69;100713.28;2057750;84;21014;-78
2021/11/14 07:08:12;;;;;;;122.47;49.42;;;;;;;-1.44;79.90;100720.56;2077847;84;21036;-79
2021/11/14 07:11:17;;;;;;;113.08;49.27;;;;;;;-1.37;79.89;100720.20;2084536;84;21476;-77
2021/11/14 07:14:17;;;;;;;121.17;49.83;;;;;;;-1.31;79.97;100723.42;2079782;84;21098;-80
2021/11/14 07:17:22;;;;;;;110.08;49.70;;;;;;;-1.25;79.99;100734.83;2074600;84;21058;-76
2021/11/14 07:20:23;;;;;;;101.38;47.23;;;;;;;-1.19;80.07;100737.12;2075991;84;21066;-77
2021/11/14 07:23:25;;;;;;;109.90;44.80;;;;;;;-1.13;80.16;100743.32;2077122;84;21111;-76
2021/11/14 07:26:27;;;;;;;96.25;41.77;;;;;;;-1.06;80.32;100745.17;2074625;84;21592;-77
2021/11/14 07:29:29;;;;;;;97.20;39.50;;;;;;;-1.00;80.45;100753.52;2071052;84;21135;-77
2021/11/14 07:32:30;;;;;;;95.60;41.10;;;;;;;-0.88;80.54;100752.52;2070382;84;21044;-77
2021/11/14 07:35:32;;;;;;;77.90;37.05;;;;;;;-0.80;80.62;100753.80;2074749;84;21036;-74
2021/11/14 07:38:33;;;;;;;82.17;36.73;;;;;;;-0.69;80.73;100758.47;2078999;84;20939;-75
2021/11/14 07:41:35;;;;;;;76.82;34.08;;;;;;;-0.59;80.72;100751.00;2074930;83;21080;-74
2021/11/14 07:44:37;;;;;;;75.12;33.15;;;;;;;-0.47;81.20;100757.73;2076538;84;20951;-75
2021/11/14 07:47:38;;;;;;;74.05;30.68;;;;;;;-0.31;80.88;100759.52;2079047;84;21488;-77
2021/11/14 07:50:40;;;;;;;65.32;31.02;;;;;;;-0.21;80.71;100763.80;2079749;84;20977;-77
2021/11/14 07:53:42;;;;;;;71.90;32.75;;;;;;;-0.14;80.62;100767.31;2079303;83;21625;-77
2021/11/14 07:56:44;;;;;;;68.12;33.02;;;;;;;-0.15;80.47;100765.61;2098837;83;21450;-77
2021/11/14 07:59:46;;;;;;;83.15;33.23;;;;;;;-0.05;80.64;100768.11;2099381;83;21020;-77
2021/11/14 08:02:48;;;;;;;82.20;36.85;;;;;;;0.03;80.63;100772.05;2085174;83;37740;-76
2021/11/14 08:05:51;;;;;;;82.05;31.48;;;;;;;0.06;80.64;100762.75;2026466;83;32267;-77
2021/11/14 08:08:52;;;;;;;72.35;35.63;;;;;;;0.09;80.48;100771.75;2027168;87;21122;-77
2021/11/14 08:11:54;;;;;;;138.43;41.35;;;;;;;0.06;80.48;100777.10;2026254;87;21056;-78
2021/11/14 08:14:55;;;;;;;79.40;31.30;;;;;;;0.17;80.68;100777.36;2027521;87;21088;-74
2021/11/14 08:17:57;;;;;;;89.15;29.65;;;;;;;0.17;80.43;100781.27;2023003;87;21143;-76
2021/11/14 08:20:59;;;;;;;86.67;30.23;;;;;;;0.11;80.41;100783.75;2021746;87;21060;-77
2021/11/14 08:24:00;;;;;;;70.37;28.80;;;;;;;0.25;80.88;100785.61;2024008;87;21100;-76
2021/11/14 08:27:04;;;;;;;59.23;26.62;;;;;;;0.32;80.75;100790.89;2026041;87;21116;-74
2021/11/14 08:30:10;;;;;;;53.52;27.05;;;;;;;0.39;80.79;100797.91;2027083;87;21516;-73
2021/11/14 08:33:12;;;;;;;66.28;29.70;;;;;;;0.46;80.70;100797.13;2027025;87;21048;-74
2021/11/14 08:36:14;;;;;;;62.23;29.48;;;;;;;0.52;80.79;100800.22;2024097;87;21143;-76
2021/11/14 08:39:15;;;;;;;55.23;28.85;;;;;;;0.61;80.74;100797.55;2027671;87;21026;-76
2021/11/14 08:42:17;;;;;;;53.50;29.75;;;;;;;0.70;80.69;100806.17;2002299;87;21591;-75
2021/11/14 08:45:19;;;;;;;53.90;29.65;;;;;;;0.70;80.74;100810.09;2026264;87;21048;-76
2021/11/14 08:48:21;;;;;;;57.53;30.17;;;;;;;0.75;80.79;100802.00;2024885;87;21072;-76
2021/11/14 08:51:24;;;;;;;67.75;32.93;;;;;;;0.89;80.92;100812.51;2026140;87;21081;-75
2021/11/14 08:54:26;;;;;;;72.95;34.53;;;;;;;1.02;81.02;100814.80;2026454;87;21104;-76
2021/11/14 08:57:27;;;;;;;70.85;36.17;;;;;;;1.13;80.94;100824.64;2026918;87;21535;-76
2021/11/14 09:00:33;;;;;;;71.35;35.52;;;;;;;1.28;80.96;100829.44;2022276;87;21083;-76
2021/11/14 09:03:35;;;;;;;70.15;36.68;;;;;;;1.41;81.00;100830.84;2022572;87;21777;-79
2021/11/14 09:06:38;;;;;;;66.67;34.05;;;;;;;1.56;81.04;100841.72;2023033;87;21033;-75
2021/11/14 09:09:39;;;;;;;63.58;34.53;;;;;;;1.69;80.95;100843.98;2020139;87;21046;-75
2021/11/14 09:12:41;;;;;;;63.90;35.05;;;;;;;1.79;80.87;100851.64;2022265;87;21107;-75
2021/11/14 09:15:45;;;;;;;71.22;35.25;;;;;;;1.88;80.82;100850.24;2022389;87;21009;-76
2021/11/14 09:18:47;;;;;;;73.05;36.90;;;;;;;2.00;80.86;100846.06;2023640;87;21717;-75
2021/11/14 09:21:49;;;;;;;65.75;34.65;;;;;;;2.20;81.02;100841.73;2024289;87;21100;-76
2021/11/14 09:24:52;;;;;;;64.45;33.83;;;;;;;2.37;80.89;100859.02;2024143;87;21052;-75
2021/11/14 09:27:54;;;;;;;61.58;34.15;;;;;;;2.50;80.63;100852.52;2023001;87;21078;-76
2021/11/14 09:30:55;;;;;;;66.82;35.33;;;;;;;2.63;80.55;100859.98;2002144;87;21025;-77
2021/11/14 09:33:57;;;;;;;62.10;33.02;;;;;;;2.78;80.65;100853.39;2025373;87;21006;-75
2021/11/14 09:37:00;;;;;;;56.70;32.60;;;;;;;2.97;80.53;100853.88;2022220;87;22126;-73
2021/11/14 09:40:04;;;;;;;56.20;34.13;;;;;;;3.10;80.47;100860.02;2001763;87;21600;-73
2021/11/14 09:43:07;;;;;;;54.63;31.82;;;;;;;3.21;80.33;100854.52;2026524;87;21052;-73
2021/11/14 09:46:08;;;;;;;50.38;29.45;;;;;;;3.34;80.43;100858.02;2026529;87;21076;-73
2021/11/14 09:49:10;;;;;;;50.50;30.68;;;;;;;3.45;80.29;100850.74;2024812;87;20985;-75
2021/11/14 09:52:12;;;;;;;50.52;29.63;;;;;;;3.56;80.37;100858.25;2023428;84;36636;-73
2021/11/14 09:55:15;;;;;;;48.65;26.90;;;;;;;3.59;80.05;100859.83;2042013;84;21030;-74
2021/11/14 09:58:17;;;;;;;48.35;27.85;;;;;;;3.68;80.05;100852.64;2077931;84;21076;-74
2021/11/14 10:01:18;;;;;;;44.77;26.52;;;;;;;3.71;79.82;100857.67;2075936;83;21041;-73
2021/11/14 10:04:22;;;;;;;47.45;28.32;;;;;;;3.69;79.53;100861.34;2077968;84;21000;-74
2021/11/14 10:07:23;;;;;;;49.70;28.83;;;;;;;3.61;79.56;100855.33;2083266;84;21135;-75
2021/11/14 10:10:32;;;;;;;53.87;30.02;;;;;;;3.66;79.89;100856.31;2074757;84;21060;-77
2021/11/14 10:13:36;;;;;;;55.00;29.65;;;;;;;3.66;79.81;100857.63;2075730;84;21288;-80
2021/11/14 10:16:39;;;;;;;50.00;28.60;;;;;;;3.78;79.93;100862.06;2077916;84;21063;-73
2021/11/14 10:19:45;;;;;;;50.50;29.50;;;;;;;3.90;79.87;100861.20;2073749;84;21113;-75
2021/11/14 10:22:52;;;;;;;54.95;29.77;;;;;;;4.04;80.03;100858.47;2078368;84;21049;-79
2021/11/14 10:25:55;;;;;;;57.88;31.07;;;;;;;4.23;79.76;100870.33;2076255;83;21030;-76
2021/11/14 10:29:02;;;;;;;61.70;33.02;;;;;;;4.48;80.13;100870.27;2073368;84;21069;-72
2021/11/14 10:32:15;;;;;;;64.58;34.30;;;;;;;4.80;80.09;100870.22;2041633;84;33999;-82
2021/11/14 10:35:14;;;;;;;61.50;34.80;;;;;;;5.10;79.79;100870.61;1999736;87;21109;-74
2021/11/14 10:38:20;;;;;;;63.48;35.33;;;;;;;5.45;79.75;100867.62;2018246;86;21036;-74
2021/11/14 10:41:22;;;;;;;73.70;37.00;;;;;;;5.73;79.12;100872.95;2021661;86;21022;-73
2021/11/14 10:44:24;;;;;;;66.50;36.75;;;;;;;5.91;79.00;100868.05;2024306;87;20997;-75
2021/11/14 10:47:26;;;;;;;67.92;38.30;;;;;;;6.14;78.77;100871.57;2018682;87;21522;-74
2021/11/14 10:50:34;;;;;;;75.52;38.90;;;;;;;6.33;78.39;100873.61;2020416;87;21035;-73
2021/11/14 10:53:41;;;;;;;69.87;38.33;;;;;;;6.50;78.25;100879.25;2015950;87;21147;-77
2021/11/14 10:56:43;;;;;;;69.50;37.30;;;;;;;6.73;78.10;100881.36;1996355;86;21101;-80
2021/11/14 10:59:50;;;;;;;66.12;37.78;;;;;;;6.85;77.42;100883.48;1990663;87;21129;-72
2021/11/14 11:02:52;;;;;;;71.75;39.10;;;;;;;7.05;77.79;100876.58;1993573;87;21152;-75
2021/11/14 11:05:56;;;;;;;82.00;42.93;;;;;;;7.34;77.50;100878.62;1985553;87;20967;-80
2021/11/14 11:09:00;;;;;;;80.32;43.78;;;;;;;7.48;76.92;100873.52;1986368;87;21536;-79
2021/11/14 11:12:03;;;;;;;72.75;40.70;;;;;;;7.63;76.83;100870.44;1985903;87;21557;-78
2021/11/14 11:15:10;;;;;;;79.55;41.53;;;;;;;7.64;76.43;100870.77;1986481;87;21839;-80
2021/11/14 11:18:21;;;;;;;78.75;43.85;;;;;;;7.74;75.98;100864.70;1993577;87;20982;-81
2021/11/14 11:21:27;;;;;;;74.27;42.35;;;;;;;7.69;75.30;100867.76;1990693;87;20978;-78
2021/11/14 11:24:29;;;;;;;79.30;43.55;;;;;;;7.51;75.15;100871.94;1987758;87;21012;-77
2021/11/14 11:27:31;;;;;;;89.42;43.78;;;;;;;7.54;75.55;100868.55;1993412;87;21078;-79
2021/11/14 11:30:40;;;;;;;81.55;43.85;;;;;;;7.57;75.34;100865.67;1985108;87;21030;-79
2021/11/14 11:33:46;;;;;;;78.97;41.53;;;;;;;7.69;75.57;100870.40;1967206;87;21683;-78
2021/11/14 11:36:49;;;;;;;72.97;39.65;;;;;;;7.88;75.47;100871.46;1992481;87;21081;-78
2021/11/14 11:39:51;;;;;;;77.50;41.18;;;;;;;7.95;74.74;100877.91;1995950;87;21073;-77
2021/11/14 11:42:54;;;;;;;73.78;41.37;;;;;;;7.89;74.57;100880.59;1991567;87;21003;-71
2021/11/14 11:46:06;;;;;;;72.78;41.10;;;;;;;7.90;74.39;100883.58;1988378;87;21420;-71
2021/11/14 11:49:31;;;;;;;84.62;43.90;;;;;;;7.81;74.30;100888.33;1994402;87;21117;-70
2021/11/14 11:52:45;;;;;;;83.90;43.48;;;;;;;7.70;73.80;100883.12;2031567;85;21042;-76
2021/11/14 11:55:47;;;;;;;76.87;42.75;;;;;;;7.47;73.60;100879.28;2022765;86;21086;-74
2021/11/14 11:58:53;;;;;;;76.07;41.77;;;;;;;7.36;73.84;100881.49;2012516;86;21049;-76
2021/11/14 12:02:05;;;;;;;82.08;43.30;;;;;;;7.38;73.97;100883.53;2020215;86;21028;-77
2021/11/14 12:05:15;;;;;;;76.22;41.40;;;;;;;7.38;73.87;100887.98;2018532;86;21576;-75
2021/11/14 12:08:17;;;;;;;81.70;43.30;;;;;;;7.32;72.92;100892.42;2016531;86;21093;-77
2021/11/14 12:11:32;;;;;;;70.92;37.70;;;;;;;7.21;73.62;100896.42;2019007;86;21464;-78
2021/11/14 12:14:35;;;;;;;81.82;42.23;;;;;;;7.18;73.31;100898.37;2023485;86;21082;-72
2021/11/14 12:17:38;;;;;;;79.60;42.75;;;;;;;7.02;73.37;100901.91;2019186;86;21048;-73
2021/11/14 12:20:45;;;;;;;83.60;44.08;;;;;;;6.99;73.47;100907.44;2023908;86;21520;-76
2021/11/14 12:24:00;;;;;;;76.02;41.35;;;;;;;6.92;73.71;100899.64;2020047;86;21588;-75
2021/11/14 12:27:04;;;;;;;75.42;42.62;;;;;;;6.86;73.39;100899.66;2020931;86;21045;-72
2021/11/14 12:30:14;;;;;;;85.60;42.62;;;;;;;6.83;73.84;100899.91;2019528;86;21073;-75
2021/11/14 12:33:28;;;;;;;80.15;42.48;;;;;;;6.87;73.88;100904.45;2026836;86;21116;-73
2021/11/14 12:36:37;;;;;;;84.15;44.50;;;;;;;6.87;73.95;100911.91;2025222;86;20971;-70
2021/11/14 12:39:41;;;;;;;88.40;44.65;;;;;;;6.84;73.73;100911.29;2020590;86;21018;-80
2021/11/14 12:42:43;;;;;;;75.15;40.40;;;;;;;6.85;73.98;100909.86;2020440;86;21576;-71
2021/11/14 12:46:08;;;;;;;83.12;45.23;;;;;;;6.88;73.95;100912.25;2019942;86;21022;-73
2021/11/14 12:49:14;;;;;;;78.52;41.37;;;;;;;6.87;73.75;100914.55;2022546;86;21583;-74
2021/11/14 12:52:32;;;;;;;89.13;44.53;;;;;;;6.84;73.86;100920.52;2074832;83;21125;-73
2021/11/14 12:55:36;;;;;;;76.72;41.92;;;;;;;6.79;73.78;100919.59;2086372;84;21039;-75
2021/11/14 12:58:38;;;;;;;76.45;39.85;;;;;;;6.77;73.92;100924.14;2089920;84;20974;-73
2021/11/14 13:01:39;;;;;;;74.35;40.05;;;;;;;6.80;73.95;100927.86;2088021;84;21368;-75
2021/11/14 13:04:41;;;;;;;72.92;37.17;;;;;;;6.81;73.86;100937.44;2087273;84;21014;-75
2021/11/14 13:07:56;;;;;;;74.05;37.90;;;;;;;6.80;73.68;100942.84;2086423;84;21130;-75
2021/11/14 13:11:05;;;;;;;73.20;39.63;;;;;;;6.78;73.69;100947.40;2089569;84;21145;-74
2021/11/14 13:14:11;;;;;;;72.20;37.78;;;;;;;6.73;73.69;100952.57;2086423;84;21030;-76
2021/11/14 13:17:14;;;;;;;67.30;36.35;;;;;;;6.79;73.88;100955.69;2085041;84;21053;-74
2021/11/14 13:20:20;;;;;;;65.60;36.17;;;;;;;6.81;73.79;100957.70;2084512;84;21607;-74
2021/11/14 13:23:24;;;;;;;67.75;34.85;;;;;;;6.81;73.55;100965.62;2086061;84;21685;-75
2021/11/14 13:26:33;;;;;;;60.80;34.38;;;;;;;6.78;73.46;100968.02;2086331;84;21517;-74
2021/11/14 13:29:45;;;;;;;65.10;34.38;;;;;;;6.79;73.67;100968.39;2089920;84;20990;-74
2021/11/14 13:32:51;;;;;;;60.90;33.23;;;;;;;6.79;73.31;100976.30;2088373;84;21065;-73
2021/11/14 13:35:52;;;;;;;63.60;32.63;;;;;;;6.76;73.38;100979.19;2088626;84;21011;-72
2021/11/14 13:38:54;;;;;;;60.05;33.50;;;;;;;6.74;73.36;100979.30;2089926;84;20995;-79
2021/11/14 13:41:59;;;;;;;61.65;33.65;;;;;;;6.75;73.42;100982.77;2089405;84;21045;-75
2021/11/14 13:45:12;;;;;;;61.75;31.57;;;;;;;6.74;73.36;100987.21;2090562;84;21007;-77
2021/11/14 13:48:14;;;;;;;58.10;32.05;;;;;;;6.72;73.25;100982.52;2087718;83;21089;-76
2021/11/14 13:51:16;;;;;;;56.42;30.52;;;;;;;6.70;73.14;100984.92;2071779;84;21027;-76
2021/11/14 13:54:18;;;;;;;59.50;29.90;;;;;;;6.64;73.22;100984.92;2045468;86;21038;-71